Change the Weather History Date:

Thursday, April 3, 2014

  Actual Average (KEVW) Record (KEVW)
Temperature  
Mean Temperature 32 °F 36 °F  
Max Temperature 41 °F 46 °F 59 °F (2006)
Min Temperature 23 °F 26 °F 12 °F (2003)
Degree Days  
Heating Degree Days 33 29  
Month to date heating degree days 88  
Since 1 July heating degree days 7156  
Cooling Degree Days 0 0  
Month to date cooling degree days 0  
Year to date cooling degree days 0  
Moisture  
Dew Point 24 °F    
Average Humidity 76    
Maximum Humidity 94    
Minimum Humidity 47    
Precipitation  
Precipitation 0.00 in 0.03 in 0.07 in (2003)
Month to date precipitation 0.09  
Year to date precipitation 2.10  
Sea Level Pressure  
Sea Level Pressure 30.01 in    
Wind  
Wind Speed 10 mph (West)    
Max Wind Speed 17 mph    
Max Gust Speed 26 mph    
Visibility 10 miles    
Events Snow    
T = Trace of Precipitation, MM = Missing Value Source: NWS Daily Summary

Daily Weather History Graph

Daily Weather History Graph

Search for Another Location

Airport or City:

Trip Planner

Search our weather history database for the weather conditions in past years. The results will help you decide how hot, cold, wet, or windy it might be!

Date:

Astronomy

Apr. 03, 2014 Rise Set
Actual Time 7:01 AM MDT 7:49 PM MDT
Civil Twilight 6:33 AM MDT 8:17 PM MDT
Nautical Twilight 6:00 AM MDT 8:50 PM MDT
Astronomical Twilight 5:25 AM MDT 9:24 PM MDT
Moon 9:30 AM MDT (4/3) No Moon Set
Length of Visible Light 13h 43m
Length of Day
12h 47m
Waxing Crescent, 18% of the Moon is Illuminated
Apr 3
Waxing Crescent
Apr 7
First Quarter
Apr 15
Full
Apr 22
Last Quarter
Apr 29
New

Hourly Weather History & Observations

Time (MDT) Temp. Windchill Dew Point Humidity Pressure Visibility Wind Dir Wind Speed Gust Speed Precip Events Conditions
12:20 AM 25.5 °F 16.2 °F 21.2 °F 84% 29.90 in 10.0 mi West 9.2 mph - N/A   Clear
12:35 AM 24.8 °F 16.9 °F 21.2 °F 86% 29.90 in 10.0 mi WSW 6.9 mph - N/A   Clear
12:55 AM 25.2 °F 16.5 °F 21.2 °F 85% 29.91 in 10.0 mi WSW 8.1 mph - N/A   Clear
1:15 AM 25.7 °F 16.4 °F 21.0 °F 82% 29.91 in 10.0 mi WSW 9.2 mph - N/A   Clear
1:35 AM 24.8 °F 15.3 °F 21.0 °F 86% 29.91 in 10.0 mi WSW 9.2 mph - N/A   Clear
1:55 AM 24.6 °F 13.8 °F 21.2 °F 87% 29.91 in 10.0 mi West 11.5 mph - N/A   Clear
2:15 AM 24.3 °F 13.3 °F 21.2 °F 88% 29.91 in 10.0 mi West 11.5 mph - N/A   Clear
2:35 AM 23.7 °F 14.0 °F 21.0 °F 89% 29.91 in 10.0 mi WSW 9.2 mph - N/A   Clear
2:55 AM 23.4 °F 14.3 °F 21.0 °F 91% 29.91 in 10.0 mi WSW 8.1 mph - N/A   Clear
3:15 AM 23.2 °F 14.1 °F 21.2 °F 92% 29.92 in 10.0 mi WSW 8.1 mph - N/A   Clear
3:35 AM 23.4 °F 14.3 °F 21.2 °F 91% 29.92 in 10.0 mi WSW 8.1 mph - N/A   Clear
3:55 AM 23.5 °F 13.7 °F 21.0 °F 90% 29.92 in 10.0 mi WSW 9.2 mph - N/A   Clear
4:15 AM 23.7 °F 14.7 °F 21.0 °F 89% 29.92 in 10.0 mi WSW 8.1 mph - N/A   Clear
4:35 AM 23.7 °F 14.0 °F 20.8 °F 89% 29.93 in 10.0 mi WSW 9.2 mph - N/A   Clear
4:55 AM 23.4 °F 13.5 °F 20.3 °F 88% 29.93 in 10.0 mi WSW 9.2 mph - N/A   Clear
5:15 AM 23.2 °F 12.6 °F 20.3 °F 89% 29.93 in 10.0 mi WSW 10.4 mph - N/A   Clear
5:35 AM 23.2 °F 12.6 °F 20.5 °F 89% 29.94 in 10.0 mi WSW 10.4 mph - N/A   Clear
5:55 AM 23.4 °F 12.2 °F 20.7 °F 89% 29.95 in 10.0 mi WSW 11.5 mph - N/A   Clear
6:15 AM 23.5 °F 13.0 °F 20.8 °F 89% 29.95 in 10.0 mi WSW 10.4 mph - N/A   Clear
6:35 AM 23.0 °F 13.1 °F 20.7 °F 91% 29.96 in 10.0 mi WSW 9.2 mph - N/A   Clear
6:55 AM 23.4 °F 12.8 °F 20.8 °F 90% 29.96 in 10.0 mi WSW 10.4 mph - N/A   Clear
7:15 AM 23.5 °F 14.5 °F 20.8 °F 89% 29.98 in 10.0 mi WSW 8.1 mph - N/A   Clear
7:35 AM 24.4 °F 14.2 °F 21.2 °F 87% 29.98 in 10.0 mi WSW 10.4 mph - N/A   Clear
7:55 AM 25.2 °F 16.5 °F 21.9 °F 87% 29.99 in 10.0 mi WSW 8.1 mph - N/A   Clear
8:15 AM 27.1 °F 18.2 °F 22.8 °F 84% 30.00 in 10.0 mi West 9.2 mph - N/A   Clear
8:35 AM 28.4 °F 18.5 °F 22.6 °F 79% 30.00 in 10.0 mi West 11.5 mph - N/A   Clear
8:55 AM 29.7 °F 20.1 °F 23.0 °F 76% 30.01 in 10.0 mi West 11.5 mph - N/A   Clear
9:15 AM 30.6 °F 20.2 °F 23.2 °F 74% 30.02 in 10.0 mi West 13.8 mph - N/A   Clear
9:35 AM 31.1 °F 21.4 °F 23.4 °F 73% 30.02 in 10.0 mi WNW 12.7 mph 17.3 mph N/A   Scattered Clouds
9:55 AM 32.0 °F 21.6 °F 23.4 °F 70% 30.02 in 10.0 mi West 15.0 mph - N/A   Scattered Clouds
10:15 AM 32.2 °F 22.7 °F 22.8 °F 68% 30.03 in 10.0 mi WNW 12.7 mph 17.3 mph N/A   Mostly Cloudy
10:35 AM 32.5 °F 23.7 °F 22.6 °F 67% 30.03 in 10.0 mi WNW 11.5 mph - N/A   Mostly Cloudy
10:55 AM 34.0 °F 25.5 °F 23.4 °F 65% 30.04 in 10.0 mi West 11.5 mph 16.1 mph N/A   Mostly Cloudy
11:15 AM 33.1 °F 25.5 °F 22.3 °F 65% 30.04 in 10.0 mi NW 9.2 mph - N/A   Overcast
11:35 AM 34.3 °F 27.7 °F 22.8 °F 63% 30.05 in 10.0 mi WNW 8.1 mph - N/A   Overcast
11:55 AM 36.3 °F 28.0 °F 24.1 °F 61% 30.06 in 10.0 mi West 12.7 mph - N/A   Overcast
12:15 PM 34.3 °F 28.4 °F 26.8 °F 74% 30.05 in 4.0 mi WNW 6.9 mph - N/A Snow Light Snow
12:35 PM 37.6 °F 31.0 °F 24.4 °F 59% 30.05 in 10.0 mi WNW 9.2 mph - N/A   Overcast
12:55 PM 36.3 °F 29.5 °F 22.8 °F 58% 30.05 in 10.0 mi West 9.2 mph - N/A   Overcast
1:15 PM 36.9 °F 28.7 °F 21.7 °F 54% 30.05 in 10.0 mi West 12.7 mph 16.1 mph N/A   Overcast
1:40 PM 38.7 °F 31.4 °F 23.5 °F 55% 30.05 in 10.0 mi WNW 11.5 mph 18.4 mph N/A   Overcast
1:55 PM 39.0 °F 32.3 °F 24.1 °F 55% 30.06 in 10.0 mi WNW 10.4 mph - N/A   Mostly Cloudy
2:15 PM 39.9 °F 33.4 °F 23.2 °F 51% 30.05 in 10.0 mi West 10.4 mph 17.3 mph N/A   Scattered Clouds
2:35 PM 41.0 °F 32.5 °F 22.3 °F 47% 30.05 in 10.0 mi WNW 17.3 mph 21.9 mph N/A   Scattered Clouds
2:55 PM 37.6 °F 30.5 °F 24.3 °F 59% 30.06 in 4.0 mi NNW 10.4 mph 17.3 mph N/A Snow Light Snow
3:15 PM 37.2 °F 30.0 °F 26.1 °F 64% 30.06 in 10.0 mi WNW 10.4 mph 17.3 mph N/A   Overcast
3:35 PM 40.5 °F 33.2 °F 25.2 °F 54% 30.05 in 10.0 mi WNW 12.7 mph - N/A   Overcast
3:55 PM 33.8 °F 25.8 °F 25.9 °F 73% 30.06 in 0.5 mi West 10.4 mph 19.6 mph N/A Snow Light Snow
4:15 PM 40.1 °F 32.0 °F 27.9 °F 62% 30.05 in 7.0 mi NW 15.0 mph 26.5 mph N/A   Overcast
4:35 PM 39.4 °F 31.8 °F 27.3 °F 62% 30.05 in 10.0 mi WNW 12.7 mph - N/A   Mostly Cloudy
4:55 PM 38.5 °F 29.6 °F 24.8 °F 58% 30.05 in 10.0 mi NW 16.1 mph 20.7 mph N/A   Mostly Cloudy
5:15 PM 37.6 °F 31.0 °F 29.5 °F 73% 30.06 in 10.0 mi NNW 9.2 mph - N/A   Mostly Cloudy
5:35 PM 39.0 °F 30.6 °F 27.0 °F 62% 30.06 in 10.0 mi WNW 15.0 mph - N/A   Scattered Clouds
5:55 PM 38.3 °F 30.9 °F 25.7 °F 61% 30.06 in 10.0 mi NW 11.5 mph - N/A   Scattered Clouds
6:15 PM 39.0 °F 31.0 °F 26.2 °F 60% 30.06 in 10.0 mi NW 13.8 mph 17.3 mph N/A   Clear
6:35 PM 37.8 °F 29.4 °F 26.1 °F 63% 30.06 in 10.0 mi NW 13.8 mph - N/A   Scattered Clouds
6:55 PM 37.2 °F 30.0 °F 25.2 °F 62% 30.07 in 10.0 mi NW 10.4 mph - N/A   Scattered Clouds
7:15 PM 34.5 °F 28.6 °F 25.7 °F 70% 30.07 in 10.0 mi NW 6.9 mph 17.3 mph N/A   Clear
7:35 PM 32.0 °F 24.8 °F 25.7 °F 78% 30.08 in 10.0 mi NW 8.1 mph - N/A   Scattered Clouds
7:55 PM 32.0 °F 25.6 °F 26.1 °F 79% 30.08 in 10.0 mi WNW 6.9 mph - N/A   Mostly Cloudy
8:15 PM 30.9 °F 26.2 °F 25.5 °F 80% 30.08 in 10.0 mi West 4.6 mph - N/A   Scattered Clouds
8:35 PM 30.7 °F 23.3 °F 26.6 °F 85% 30.09 in 10.0 mi NW 8.1 mph - N/A   Clear
9:55 PM 29.1 °F 24.1 °F 27.1 °F 92% 30.10 in 10.0 mi West 4.6 mph - N/A   Clear
10:15 PM 28.4 °F 22.2 °F 27.0 °F 94% 30.10 in 10.0 mi West 5.8 mph - N/A   Clear
10:35 PM 28.8 °F 23.7 °F 26.6 °F 92% 30.10 in 10.0 mi WSW 4.6 mph - N/A   Clear
10:55 PM 28.9 °F 21.1 °F 26.6 °F 91% 30.10 in 10.0 mi West 8.1 mph - N/A   Clear
11:15 PM 29.1 °F 22.1 °F 26.1 °F 88% 30.10 in 10.0 mi West 6.9 mph - N/A   Clear
11:35 PM 28.8 °F 21.7 °F 26.2 °F 90% 30.10 in 10.0 mi WSW 6.9 mph - N/A   Clear
11:55 PM 28.6 °F 21.5 °F 25.7 °F 89% 30.10 in 10.0 mi SW 6.9 mph - N/A   Clear